createdAt,value
2022-10-17T00:00:37.398Z,99133.72
2022-10-17T00:01:39.196Z,99131.03
2022-10-17T00:02:41.011Z,99132.06
2022-10-17T00:03:42.759Z,99131.25
2022-10-17T00:04:44.471Z,99122.19
2022-10-17T00:05:48.861Z,99126.97
2022-10-17T00:06:50.556Z,99126.97
2022-10-17T00:07:53.664Z,99125.09
2022-10-17T00:08:55.359Z,99123.47
2022-10-17T00:09:57.117Z,99125.09
2022-10-17T00:11:03.622Z,99128.22
2022-10-17T00:12:05.745Z,99122.88
2022-10-17T00:13:08.946Z,99125.53
2022-10-17T00:14:10.871Z,99121.00
2022-10-17T00:15:17.441Z,99127.41
2022-10-17T00:16:33.638Z,99124.72
2022-10-17T00:17:35.407Z,99124.97
2022-10-17T00:18:37.177Z,99133.22
2022-10-17T00:19:38.890Z,99120.91
2022-10-17T00:20:40.636Z,99125.44
2022-10-17T00:21:42.355Z,99124.63
2022-10-17T00:22:44.290Z,99124.06
2022-10-17T00:23:47.153Z,99125.94
2022-10-17T00:24:48.842Z,99127.78
2022-10-17T00:26:06.018Z,99128.59
2022-10-17T00:27:08.280Z,99132.53
2022-10-17T00:28:14.291Z,99134.63
2022-10-17T00:29:16.058Z,99127.66
2022-10-17T00:30:17.942Z,99129.53
2022-10-17T00:31:22.232Z,99131.16
2022-10-17T00:32:23.979Z,99136.72
2022-10-17T00:33:27.482Z,99128.72
2022-10-17T00:34:31.037Z,99134.06
2022-10-17T00:35:33.286Z,99135.34
2022-10-17T00:36:35.046Z,99133.72
2022-10-17T00:37:37.274Z,99129.19
2022-10-17T00:38:40.246Z,99131.28
2022-10-17T00:39:41.944Z,99136.41
2022-10-17T00:40:43.689Z,99141.97
2022-10-17T00:41:45.485Z,99138.50
2022-10-17T00:42:47.390Z,99140.31
2022-10-17T00:44:21.933Z,99140.13
2022-10-17T00:45:31.001Z,99131.50
2022-10-17T00:46:38.639Z,99145.09
2022-10-17T00:47:42.743Z,99144.28
2022-10-17T00:48:46.060Z,99145.34
2022-10-17T00:49:48.291Z,99143.13
2022-10-17T00:50:50.918Z,99138.84
2022-10-17T00:52:08.587Z,99141.28
2022-10-17T00:53:11.313Z,99137.22
2022-10-17T00:54:17.116Z,99138.28
2022-10-17T00:55:29.440Z,99136.66
2022-10-17T00:56:32.004Z,99134.41
2022-10-17T00:57:34.071Z,99139.75
2022-10-17T00:58:36.111Z,99141.63
2022-10-17T00:59:41.693Z,99134.41
2022-10-17T01:00:45.442Z,99132.78
2022-10-17T01:02:20.035Z,99137.31
2022-10-17T01:03:22.142Z,99134.09
2022-10-17T01:04:23.841Z,99135.13
2022-10-17T01:05:26.086Z,99137.81
2022-10-17T01:06:27.925Z,99135.13
2022-10-17T01:07:33.234Z,99137.00
2022-10-17T01:08:38.858Z,99139.66
2022-10-17T01:09:43.054Z,99137.81
2022-10-17T01:11:14.030Z,99137.00
2022-10-17T01:12:40.272Z,99140.47
2022-10-17T01:14:09.038Z,99139.28
2022-10-17T01:15:22.354Z,99143.00
2022-10-17T01:16:40.344Z,99142.19
2022-10-17T01:18:04.633Z,99147.53
2022-10-17T01:19:34.053Z,99152.06
2022-10-17T01:21:19.852Z,99152.53
2022-10-17T01:22:47.008Z,99146.63
2022-10-17T01:24:16.631Z,99148.50
2022-10-17T01:25:42.548Z,99152.22
2022-10-17T01:26:50.213Z,99141.97
2022-10-17T01:28:22.577Z,99153.47
2022-10-17T01:30:30.946Z,99152.66
2022-10-17T01:31:46.678Z,99155.31
2022-10-17T01:33:12.748Z,99151.03
2022-10-17T01:34:37.633Z,99153.25
2022-10-17T01:36:01.834Z,99144.88
2022-10-17T01:37:24.905Z,99152.41
2022-10-17T01:38:43.973Z,99152.22
2022-10-17T01:40:17.976Z,99154.06
2022-10-17T01:41:31.442Z,99151.59
2022-10-17T01:42:59.389Z,99152.88
2022-10-17T01:44:12.175Z,99158.00
2022-10-17T01:45:29.466Z,99146.72
2022-10-17T01:46:41.207Z,99144.28
2022-10-17T01:47:46.154Z,99157.41
2022-10-17T01:48:47.999Z,99146.72
2022-10-17T01:49:53.647Z,99153.13
2022-10-17T01:51:06.245Z,99156.94
2022-10-17T01:52:22.552Z,99153.69
2022-10-17T01:53:34.531Z,99152.06
2022-10-17T01:54:55.517Z,99150.78
2022-10-17T01:56:02.006Z,99150.78
2022-10-17T01:57:11.440Z,99154.28
2022-10-17T01:58:20.375Z,99147.06
2022-10-17T01:59:33.974Z,99151.16
2022-10-17T02:00:37.839Z,99141.53
2022-10-17T02:01:44.044Z,99148.50
2022-10-17T02:02:49.800Z,99137.81
2022-10-17T02:03:53.363Z,99133.84
2022-10-17T02:04:57.241Z,99144.53
2022-10-17T02:05:59.164Z,99140.00
2022-10-17T02:07:12.585Z,99142.44
2022-10-17T02:08:25.568Z,99131.75
2022-10-17T02:09:27.578Z,99139.19
2022-10-17T02:10:55.910Z,99141.38
2022-10-17T02:12:42.071Z,99136.28
2022-10-17T02:14:28.141Z,99134.41
2022-10-17T02:15:59.385Z,99138.94
2022-10-17T02:17:54.267Z,99141.63
2022-10-17T02:19:37.943Z,99136.53
2022-10-17T02:20:54.685Z,99142.69
2022-10-17T02:22:23.298Z,99145.81
2022-10-17T02:23:47.025Z,99152.22
2022-10-17T02:25:18.133Z,99146.06
2022-10-17T02:26:32.066Z,99156.75
2022-10-17T02:27:43.608Z,99155.94
2022-10-17T02:29:38.595Z,99147.91
2022-10-17T02:30:47.550Z,99146.50
2022-10-17T02:32:00.763Z,99145.69
2022-10-17T02:33:11.276Z,99152.06
2022-10-17T02:34:46.261Z,99139.19
2022-10-17T02:35:54.029Z,99141.03
2022-10-17T02:37:02.109Z,99146.38
2022-10-17T02:38:08.786Z,99145.56
2022-10-17T02:39:13.502Z,99149.28
2022-10-17T02:40:20.969Z,99147.44
2022-10-17T02:41:24.936Z,99153.81
2022-10-17T02:42:29.496Z,99145.19
2022-10-17T02:43:31.762Z,99147.06
2022-10-17T02:44:37.044Z,99152.41
2022-10-17T02:45:40.621Z,99148.34
2022-10-17T02:46:49.401Z,99154.25
2022-10-17T02:48:18.040Z,99148.91
2022-10-17T02:49:29.814Z,99160.66
2022-10-17T02:50:52.693Z,99156.34
2022-10-17T02:52:14.278Z,99161.69
2022-10-17T02:53:32.479Z,99156.59
2022-10-17T02:54:44.560Z,99162.97
2022-10-17T02:56:00.180Z,99161.34
2022-10-17T02:57:11.685Z,99166.91
2022-10-17T02:58:22.174Z,99166.31
2022-10-17T02:59:27.248Z,99163.03
2022-10-17T03:00:31.367Z,99163.28
2022-10-17T03:01:35.995Z,99164.91
2022-10-17T03:02:48.372Z,99162.22
2022-10-17T03:03:50.207Z,99157.59
2022-10-17T03:04:52.173Z,99159.44
2022-10-17T03:05:54.652Z,99167.69
2022-10-17T03:06:56.569Z,99164.22
2022-10-17T03:07:58.277Z,99162.59
2022-10-17T03:08:59.981Z,99163.59
2022-10-17T03:10:01.798Z,99169.41
2022-10-17T03:11:03.590Z,99165.09
2022-10-17T03:12:05.750Z,99171.50
2022-10-17T03:13:07.466Z,99169.06
2022-10-17T03:14:09.351Z,99165.56
2022-10-17T03:15:12.207Z,99167.66
2022-10-17T03:16:13.942Z,99170.53
2022-10-17T03:17:15.659Z,99164.84
2022-10-17T03:18:17.365Z,99172.84
2022-10-17T03:19:19.108Z,99169.03
2022-10-17T03:20:20.800Z,99172.50
2022-10-17T03:21:22.538Z,99169.03
2022-10-17T03:22:24.575Z,99178.88
2022-10-17T03:23:26.257Z,99176.44
2022-10-17T03:24:27.974Z,99177.47
2022-10-17T03:25:29.744Z,99178.50
2022-10-17T03:26:31.636Z,99184.88
2022-10-17T03:27:33.460Z,99180.00
2022-10-17T03:28:35.639Z,99182.69
2022-10-17T03:29:37.373Z,99180.00
2022-10-17T03:30:39.344Z,99174.09
2022-10-17T03:31:41.104Z,99179.44
2022-10-17T03:32:42.814Z,99181.28
2022-10-17T03:33:44.535Z,99180.09
2022-10-17T03:34:46.286Z,99179.06
2022-10-17T03:36:49.852Z,99178.47
2022-10-17T03:37:51.576Z,99179.50
2022-10-17T03:38:56.488Z,99181.13
2022-10-17T03:39:58.273Z,99177.31
2022-10-17T03:40:59.970Z,99173.00
2022-10-17T03:42:01.654Z,99178.56
2022-10-17T03:43:04.301Z,99182.28
2022-10-17T03:44:06.011Z,99179.00
2022-10-17T03:45:08.263Z,99174.72
2022-10-17T03:46:10.165Z,99184.34
2022-10-17T03:47:14.124Z,99181.09
2022-10-17T03:48:16.111Z,99175.97
2022-10-17T03:49:17.802Z,99180.75
2022-10-17T03:50:19.523Z,99178.06
2022-10-17T03:51:21.960Z,99182.00
2022-10-17T03:52:23.646Z,99174.22
2022-10-17T03:53:25.408Z,99177.09
2022-10-17T03:54:27.224Z,99177.91
2022-10-17T03:55:28.940Z,99179.19
2022-10-17T03:56:30.727Z,99173.03
2022-10-17T03:57:36.299Z,99180.00
2022-10-17T03:58:38.014Z,99179.41
2022-10-17T03:59:39.763Z,99180.44
2022-10-17T04:00:41.472Z,99183.13
2022-10-17T04:01:43.798Z,99186.84
2022-10-17T04:02:45.598Z,99182.31
2022-10-17T04:03:56.438Z,99187.66
2022-10-17T04:04:58.179Z,99188.09
2022-10-17T04:06:01.109Z,99180.09
2022-10-17T04:07:03.252Z,99180.09
2022-10-17T04:08:05.281Z,99185.44
2022-10-17T04:09:07.696Z,99182.97
2022-10-17T04:10:10.809Z,99183.19
2022-10-17T04:11:17.527Z,99185.00
2022-10-17T04:12:19.257Z,99183.38
2022-10-17T04:13:20.973Z,99184.66
2022-10-17T04:14:22.708Z,99191.63
2022-10-17T04:15:24.422Z,99191.84
2022-10-17T04:16:27.086Z,99188.38
2022-10-17T04:17:35.762Z,99190.00
2022-10-17T04:18:40.102Z,99194.97
2022-10-17T04:19:41.858Z,99192.53
2022-10-17T04:20:43.567Z,99196.00
2022-10-17T04:21:45.391Z,99191.91
2022-10-17T04:22:47.117Z,99200.38
2022-10-17T04:23:48.864Z,99201.19
2022-10-17T04:24:50.563Z,99210.00
2022-10-17T04:25:57.263Z,99206.50
2022-10-17T04:26:59.101Z,99203.84
2022-10-17T04:28:00.813Z,99197.94
2022-10-17T04:29:02.515Z,99211.03
2022-10-17T04:30:04.719Z,99217.41
2022-10-17T04:31:12.166Z,99220.88
2022-10-17T04:32:14.068Z,99215.56
2022-10-17T04:33:15.805Z,99221.13
2022-10-17T04:34:17.764Z,99221.13
2022-10-17T04:35:19.532Z,99216.81
2022-10-17T04:36:22.876Z,99215.19
2022-10-17T04:37:24.641Z,99210.91
2022-10-17T04:38:29.444Z,99216.00
2022-10-17T04:39:31.207Z,99217.03
2022-10-17T04:40:33.111Z,99221.34
2022-10-17T04:41:34.882Z,99211.91
2022-10-17T04:42:36.904Z,99219.31
2022-10-17T04:43:40.158Z,99219.09
2022-10-17T04:44:42.204Z,99214.81
2022-10-17T04:45:44.007Z,99222.56
2022-10-17T04:46:45.719Z,99220.94
2022-10-17T04:47:47.458Z,99213.63
2022-10-17T04:48:49.261Z,99222.44
2022-10-17T04:49:51.022Z,99223.47
2022-10-17T04:51:00.586Z,99222.66
2022-10-17T04:52:02.295Z,99222.88
2022-10-17T04:53:04.053Z,99225.78
2022-10-17T04:54:05.990Z,99215.31
2022-10-17T04:55:08.341Z,99219.00
2022-10-17T04:56:14.260Z,99225.38
2022-10-17T04:57:16.241Z,99215.75
2022-10-17T04:58:18.498Z,99212.28
2022-10-17T04:59:20.243Z,99221.31
2022-10-17T05:00:22.120Z,99215.41
2022-10-17T05:01:24.154Z,99222.34
2022-10-17T05:02:26.018Z,99223.97
2022-10-17T05:03:27.955Z,99227.91
2022-10-17T05:04:29.671Z,99222.81
2022-10-17T05:05:31.476Z,99227.31
2022-10-17T05:06:33.620Z,99228.38
2022-10-17T05:07:35.351Z,99230.19
2022-10-17T05:08:37.643Z,99231.22
2022-10-17T05:09:39.332Z,99225.53
2022-10-17T05:10:46.049Z,99229.81
2022-10-17T05:11:47.832Z,99236.19
2022-10-17T05:12:50.620Z,99229.44
2022-10-17T05:13:59.469Z,99232.72
2022-10-17T05:15:01.226Z,99235.59
2022-10-17T05:16:03.066Z,99236.03
2022-10-17T05:17:04.787Z,99233.56
2022-10-17T05:18:07.326Z,99237.91
2022-10-17T05:19:09.063Z,99233.19
2022-10-17T05:20:11.635Z,99236.69
2022-10-17T05:21:13.347Z,99234.03
2022-10-17T05:22:15.237Z,99242.22
2022-10-17T05:23:17.014Z,99236.91
2022-10-17T05:24:18.745Z,99234.69
2022-10-17T05:25:20.927Z,99231.22
2022-10-17T05:26:23.843Z,99233.06
2022-10-17T05:27:25.583Z,99228.78
2022-10-17T05:28:27.672Z,99230.41
2022-10-17T05:29:29.422Z,99231.22
2022-10-17T05:30:35.119Z,99234.09
2022-10-17T05:31:39.217Z,99223.84
2022-10-17T05:32:41.015Z,99230.00
2022-10-17T05:33:43.017Z,99224.66
2022-10-17T05:34:44.942Z,99224.88
2022-10-17T05:35:46.677Z,99226.53
2022-10-17T05:36:48.399Z,99223.84
2022-10-17T05:37:50.173Z,99227.78
2022-10-17T05:38:52.523Z,99222.44
2022-10-17T05:39:54.262Z,99227.56
2022-10-17T05:41:00.404Z,99231.84
2022-10-17T05:42:02.190Z,99229.19
2022-10-17T05:43:04.003Z,99232.28
2022-10-17T05:44:05.956Z,99228.81
2022-10-17T05:45:08.227Z,99239.25
2022-10-17T05:46:10.807Z,99238.44
2022-10-17T05:47:12.516Z,99248.28
2022-10-17T05:48:14.263Z,99245.63
2022-10-17T05:49:31.891Z,99241.09
2022-10-17T05:50:35.968Z,99243.16
2022-10-17T05:52:46.438Z,99246.44
2022-10-17T05:53:48.951Z,99243.97
2022-10-17T05:54:50.715Z,99241.53
2022-10-17T05:56:01.432Z,99248.28
2022-10-17T05:57:03.247Z,99245.84
2022-10-17T05:58:05.230Z,99245.84
2022-10-17T05:59:06.945Z,99240.72
2022-10-17T06:00:09.721Z,99235.41
2022-10-17T06:01:13.275Z,99233.97
2022-10-17T06:02:15.015Z,99245.88
2022-10-17T06:03:16.912Z,99238.69
2022-10-17T06:04:18.717Z,99250.63
2022-10-17T06:05:21.249Z,99257.56
2022-10-17T06:06:23.336Z,99255.94
2022-10-17T06:07:25.058Z,99258.38
2022-10-17T06:08:26.780Z,99250.63
2022-10-17T06:09:28.816Z,99254.53
2022-10-17T06:10:30.551Z,99257.19
2022-10-17T06:11:32.484Z,99249.22
2022-10-17T06:12:34.389Z,99253.09
2022-10-17T06:13:36.140Z,99246.75
2022-10-17T06:14:37.887Z,99245.72
2022-10-17T06:15:39.918Z,99243.06
2022-10-17T06:16:43.568Z,99249.78
2022-10-17T06:17:45.308Z,99246.53
2022-10-17T06:19:53.709Z,99243.66
2022-10-17T06:21:02.295Z,99257.56
2022-10-17T06:22:04.091Z,99256.97
2022-10-17T06:23:06.361Z,99255.13
2022-10-17T06:24:08.111Z,99260.00
2022-10-17T06:25:10.076Z,99259.19
2022-10-17T06:26:11.995Z,99257.34
2022-10-17T06:27:13.799Z,99256.31
2022-10-17T06:28:15.521Z,99257.13
2022-10-17T06:29:17.993Z,99265.13
2022-10-17T06:30:19.824Z,99265.75
2022-10-17T06:31:21.575Z,99271.66
2022-10-17T06:32:23.293Z,99265.31
2022-10-17T06:33:25.310Z,99273.06
2022-10-17T06:34:27.126Z,99274.69
2022-10-17T06:35:28.849Z,99274.69
2022-10-17T06:36:30.618Z,99277.13
2022-10-17T06:37:36.379Z,99278.78
2022-10-17T06:38:38.819Z,99277.72
2022-10-17T06:39:40.614Z,99283.88
2022-10-17T06:40:42.346Z,99285.72
2022-10-17T06:41:44.574Z,99292.50
2022-10-17T06:42:46.317Z,99286.34
2022-10-17T06:43:48.063Z,99288.19
2022-10-17T06:44:49.834Z,99284.72
2022-10-17T06:45:51.593Z,99289.00
2022-10-17T06:46:53.341Z,99290.66
2022-10-17T06:47:55.151Z,99286.34
2022-10-17T06:48:56.854Z,99281.84
2022-10-17T06:49:58.561Z,99285.31
2022-10-17T06:51:05.165Z,99286.72
2022-10-17T06:52:06.963Z,99282.44
2022-10-17T06:53:08.745Z,99277.09
2022-10-17T06:54:10.527Z,99281.41
2022-10-17T06:55:12.935Z,99287.31
2022-10-17T06:56:15.857Z,99291.59
2022-10-17T06:57:18.131Z,99294.28
2022-10-17T06:58:19.887Z,99297.53
2022-10-17T06:59:22.169Z,99295.50
2022-10-17T07:00:24.044Z,99300.81
2022-10-17T07:01:26.573Z,99305.09
2022-10-17T07:02:28.561Z,99304.88
2022-10-17T07:03:30.983Z,99306.53
2022-10-17T07:04:32.953Z,99310.59
2022-10-17T07:05:34.655Z,99318.38
2022-10-17T07:06:36.474Z,99317.31
2022-10-17T07:07:40.196Z,99313.66
2022-10-17T07:08:46.059Z,99317.72
2022-10-17T07:09:47.788Z,99316.47
2022-10-17T07:10:50.000Z,99325.88
2022-10-17T07:11:51.911Z,99329.34
2022-10-17T07:12:53.627Z,99330.75
2022-10-17T07:13:55.378Z,99323.59
2022-10-17T07:14:57.123Z,99322.34
2022-10-17T07:16:01.649Z,99323.97
2022-10-17T07:17:03.949Z,99325.38
2022-10-17T07:18:06.611Z,99317.16
2022-10-17T07:19:08.304Z,99317.75
2022-10-17T07:20:10.784Z,99323.69
2022-10-17T07:21:12.573Z,99321.03
2022-10-17T07:22:14.359Z,99328.81
2022-10-17T07:23:16.090Z,99321.63
2022-10-17T07:24:18.025Z,99324.66
2022-10-17T07:25:19.741Z,99326.50
2022-10-17T07:26:22.090Z,99317.25
2022-10-17T07:27:23.869Z,99325.88
2022-10-17T07:28:25.608Z,99329.13
2022-10-17T07:29:27.627Z,99321.72
2022-10-17T07:30:29.388Z,99326.81
2022-10-17T07:31:31.084Z,99336.84
2022-10-17T07:32:32.836Z,99332.34
2022-10-17T07:33:35.043Z,99340.50
2022-10-17T07:34:37.414Z,99337.38
2022-10-17T07:35:40.920Z,99335.31
2022-10-17T07:36:42.838Z,99341.25
2022-10-17T07:37:44.546Z,99341.84
2022-10-17T07:38:46.453Z,99342.44
2022-10-17T07:39:48.612Z,99346.28
2022-10-17T07:40:58.932Z,99344.81
2022-10-17T07:42:00.654Z,99347.25
2022-10-17T07:43:02.433Z,99346.00
2022-10-17T07:44:04.861Z,99350.06
2022-10-17T07:45:07.210Z,99356.63
2022-10-17T07:46:11.361Z,99355.34
2022-10-17T07:47:13.673Z,99354.06
2022-10-17T07:48:15.442Z,99353.63
2022-10-17T07:49:17.222Z,99349.72
2022-10-17T07:50:20.012Z,99350.88
2022-10-17T07:51:22.046Z,99346.13
2022-10-17T07:52:23.991Z,99350.00
2022-10-17T07:53:25.718Z,99349.78
2022-10-17T07:54:27.448Z,99353.63
2022-10-17T07:55:29.139Z,99348.88
2022-10-17T07:56:30.847Z,99347.41
2022-10-17T07:57:32.567Z,99347.16
2022-10-17T07:58:35.544Z,99352.06
2022-10-17T07:59:38.519Z,99347.91
2022-10-17T08:00:40.392Z,99346.66
2022-10-17T08:01:42.123Z,99352.59
2022-10-17T08:02:43.828Z,99354.22
2022-10-17T08:03:48.689Z,99351.72
2022-10-17T08:04:51.460Z,99354.97
2022-10-17T08:05:57.452Z,99356.13
2022-10-17T08:07:11.922Z,99353.00
2022-10-17T08:08:20.226Z,99348.63
2022-10-17T08:09:22.097Z,99352.69
2022-10-17T08:10:29.215Z,99354.09
2022-10-17T08:11:31.246Z,99351.78
2022-10-17T08:12:34.385Z,99356.69
2022-10-17T08:13:37.146Z,99352.50
2022-10-17T08:14:39.726Z,99354.94
2022-10-17T08:15:41.472Z,99357.97
2022-10-17T08:16:43.738Z,99356.72
2022-10-17T08:17:45.627Z,99355.44
2022-10-17T08:18:47.362Z,99352.09
2022-10-17T08:19:49.073Z,99353.47
2022-10-17T08:20:50.965Z,99352.44
2022-10-17T08:21:54.275Z,99358.34
2022-10-17T08:22:56.267Z,99352.78
2022-10-17T08:23:58.058Z,99358.50
2022-10-17T08:24:59.781Z,99354.56
2022-10-17T08:26:04.893Z,99361.06
2022-10-17T08:27:11.334Z,99353.63
2022-10-17T08:28:13.365Z,99351.31
2022-10-17T08:29:16.664Z,99353.56
2022-10-17T08:30:18.501Z,99357.38
2022-10-17T08:31:21.375Z,99351.59
2022-10-17T08:32:27.061Z,99356.25
2022-10-17T08:33:28.909Z,99354.75
2022-10-17T08:34:30.654Z,99356.94
2022-10-17T08:35:32.404Z,99353.00
2022-10-17T08:36:34.388Z,99358.25
2022-10-17T08:37:36.324Z,99367.66
2022-10-17T08:38:43.076Z,99370.91
2022-10-17T08:39:45.402Z,99365.09
2022-10-17T08:40:49.596Z,99365.47
2022-10-17T08:42:27.951Z,99354.84
2022-10-17T08:43:50.789Z,99356.25
2022-10-17T08:45:18.431Z,99350.44
2022-10-17T08:46:20.555Z,99351.03
2022-10-17T08:47:36.303Z,99350.31
2022-10-17T08:48:46.798Z,99354.16
2022-10-17T08:49:57.197Z,99357.97
2022-10-17T08:51:21.347Z,99354.81
2022-10-17T08:52:46.734Z,99363.81
2022-10-17T08:54:15.860Z,99357.75
2022-10-17T08:55:40.091Z,99359.75
2022-10-17T08:56:50.051Z,99353.09
2022-10-17T08:57:51.858Z,99362.28
2022-10-17T08:58:53.674Z,99352.72
2022-10-17T08:59:56.732Z,99355.16
2022-10-17T09:01:31.504Z,99358.50
2022-10-17T09:02:57.658Z,99355.94
2022-10-17T09:04:27.291Z,99366.19
2022-10-17T09:05:47.206Z,99371.91
2022-10-17T09:07:21.612Z,99362.09
2022-10-17T09:08:47.215Z,99364.88
2022-10-17T09:10:18.926Z,99368.69
2022-10-17T09:11:42.958Z,99365.53
2022-10-17T09:13:22.051Z,99362.97
2022-10-17T09:14:54.535Z,99365.16
2022-10-17T09:16:14.390Z,99358.25
2022-10-17T09:17:58.637Z,99362.94
2022-10-17T09:19:07.757Z,99359.53
2022-10-17T09:20:23.605Z,99366.06
2022-10-17T09:21:49.452Z,99365.31
2022-10-17T09:23:11.752Z,99359.81
2022-10-17T09:24:44.446Z,99367.69
2022-10-17T09:25:52.505Z,99360.56
2022-10-17T09:26:55.732Z,99360.63
2022-10-17T09:28:03.277Z,99358.06
2022-10-17T09:29:24.720Z,99357.88
2022-10-17T09:30:49.264Z,99359.91
2022-10-17T09:32:21.067Z,99353.34
2022-10-17T09:33:55.368Z,99354.91
2022-10-17T09:34:57.306Z,99360.91
2022-10-17T09:36:00.332Z,99357.78
2022-10-17T09:37:03.474Z,99352.31
2022-10-17T09:38:05.448Z,99344.19
2022-10-17T09:39:19.685Z,99349.00
2022-10-17T09:40:32.976Z,99353.28
2022-10-17T09:41:46.513Z,99344.34
2022-10-17T09:42:51.255Z,99353.19
2022-10-17T09:43:57.395Z,99346.38
2022-10-17T09:45:24.758Z,99345.84
2022-10-17T09:46:37.655Z,99350.13
2022-10-17T09:48:10.167Z,99351.44
2022-10-17T09:49:23.709Z,99350.53
2022-10-17T09:50:32.693Z,99343.34
2022-10-17T09:51:37.891Z,99342.06
2022-10-17T09:52:48.679Z,99334.53
2022-10-17T09:54:26.597Z,99328.09
2022-10-17T09:55:43.309Z,99337.56
2022-10-17T09:57:04.502Z,99333.78
2022-10-17T09:58:08.953Z,99328.59
2022-10-17T09:59:41.740Z,99330.66
2022-10-17T10:00:48.885Z,99329.97
2022-10-17T10:02:16.964Z,99331.34
2022-10-17T10:03:27.166Z,99333.75
2022-10-17T10:04:30.324Z,99330.22
2022-10-17T10:05:35.571Z,99329.00
2022-10-17T10:06:38.618Z,99329.47
2022-10-17T10:07:40.339Z,99332.06
2022-10-17T10:08:55.424Z,99331.91
2022-10-17T10:10:00.128Z,99339.34
2022-10-17T10:11:13.471Z,99339.25
2022-10-17T10:12:39.017Z,99340.19
2022-10-17T10:13:41.162Z,99337.63
2022-10-17T10:14:47.090Z,99342.34
2022-10-17T10:15:50.841Z,99342.72
2022-10-17T10:16:55.999Z,99341.59
2022-10-17T10:17:57.774Z,99339.25
2022-10-17T10:18:59.721Z,99341.88
2022-10-17T10:20:04.451Z,99347.72
2022-10-17T10:21:24.442Z,99349.09
2022-10-17T10:22:26.667Z,99349.47
2022-10-17T10:23:28.631Z,99351.38
2022-10-17T10:24:31.735Z,99346.38
2022-10-17T10:25:35.419Z,99350.28
2022-10-17T10:26:45.669Z,99354.84
2022-10-17T10:27:47.847Z,99350.13
2022-10-17T10:29:02.514Z,99353.78
2022-10-17T10:30:05.318Z,99356.13
2022-10-17T10:31:09.758Z,99351.91
2022-10-17T10:32:20.665Z,99352.00
2022-10-17T10:33:27.545Z,99348.97
2022-10-17T10:34:31.344Z,99351.59
2022-10-17T10:35:37.135Z,99358.13
2022-10-17T10:37:03.977Z,99353.97
2022-10-17T10:38:16.845Z,99352.41
2022-10-17T10:40:00.956Z,99347.44
2022-10-17T10:41:11.699Z,99348.72
2022-10-17T10:42:24.292Z,99352.50
2022-10-17T10:43:43.949Z,99350.88
2022-10-17T10:44:46.782Z,99356.56
2022-10-17T10:45:49.331Z,99355.63
2022-10-17T10:47:15.982Z,99356.34
2022-10-17T10:48:30.059Z,99356.50
2022-10-17T10:49:32.996Z,99356.03
2022-10-17T10:50:45.947Z,99352.03
2022-10-17T10:51:49.595Z,99352.38
2022-10-17T10:53:15.078Z,99353.16
2022-10-17T10:54:30.886Z,99356.34
2022-10-17T10:55:55.345Z,99358.59
2022-10-17T10:57:03.278Z,99361.59
2022-10-17T10:58:42.026Z,99359.81
2022-10-17T11:00:21.150Z,99361.22
2022-10-17T11:01:30.060Z,99361.31
2022-10-17T11:03:18.582Z,99362.75
2022-10-17T11:04:20.220Z,99350.88
2022-10-17T11:05:42.910Z,99354.59
2022-10-17T11:06:47.777Z,99359.81
2022-10-17T11:08:20.676Z,99358.13
2022-10-17T11:10:14.341Z,99353.91
2022-10-17T11:11:26.125Z,99348.31
2022-10-17T11:13:10.246Z,99347.63
2022-10-17T11:14:36.448Z,99353.03
2022-10-17T11:15:57.585Z,99346.34
2022-10-17T11:17:29.349Z,99345.88
2022-10-17T11:18:47.234Z,99341.78
2022-10-17T11:20:30.309Z,99348.28
2022-10-17T11:22:07.414Z,99351.81
2022-10-17T11:24:13.687Z,99351.03
2022-10-17T11:25:41.300Z,99350.63
2022-10-17T11:26:58.750Z,99350.81
2022-10-17T11:28:04.876Z,99354.69
2022-10-17T11:29:08.894Z,99351.00
2022-10-17T11:30:23.698Z,99353.34
2022-10-17T11:31:35.391Z,99356.94
2022-10-17T11:32:46.433Z,99351.66
2022-10-17T11:34:04.894Z,99349.94
2022-10-17T11:35:18.412Z,99350.59
2022-10-17T11:36:27.071Z,99347.84
2022-10-17T11:37:40.958Z,99347.44
2022-10-17T11:38:54.852Z,99349.56
2022-10-17T11:40:05.171Z,99348.78
2022-10-17T11:41:15.720Z,99346.59
2022-10-17T11:42:39.353Z,99345.63
2022-10-17T11:43:50.912Z,99343.41
2022-10-17T11:45:18.041Z,99347.78
2022-10-17T11:46:26.895Z,99350.72
2022-10-17T11:47:47.611Z,99346.22
2022-10-17T11:49:20.106Z,99347.38
2022-10-17T11:54:08.901Z,99350.72
2022-10-17T11:55:21.613Z,99350.41
2022-10-17T11:56:43.551Z,99351.38
2022-10-17T11:58:06.382Z,99348.63
2022-10-17T11:59:51.210Z,99349.03
2022-10-17T12:01:38.119Z,99355.09
2022-10-17T12:03:12.707Z,99362.97
2022-10-17T12:04:34.882Z,99361.19
2022-10-17T12:05:55.549Z,99355.19
2022-10-17T12:07:17.164Z,99349.41
2022-10-17T12:08:34.698Z,99348.38
2022-10-17T12:10:03.941Z,99352.81
2022-10-17T12:11:22.960Z,99348.00
2022-10-17T12:12:28.943Z,99343.81
2022-10-17T12:13:35.029Z,99352.13
2022-10-17T12:14:46.332Z,99342.47
2022-10-17T12:15:48.065Z,99350.78
2022-10-17T12:16:50.774Z,99347.88
2022-10-17T12:18:02.874Z,99347.50
2022-10-17T12:19:06.388Z,99357.06
2022-10-17T12:20:27.329Z,99352.06
2022-10-17T12:22:00.472Z,99351.69
2022-10-17T12:23:11.039Z,99355.84
2022-10-17T12:24:39.977Z,99359.31
2022-10-17T12:25:55.960Z,99353.38
2022-10-17T12:27:43.421Z,99357.94
2022-10-17T12:28:48.137Z,99353.63
2022-10-17T12:29:51.194Z,99359.19
2022-10-17T12:31:12.082Z,99356.25
2022-10-17T12:32:14.923Z,99353.03
2022-10-17T12:33:33.179Z,99355.56
2022-10-17T12:34:35.336Z,99356.78
2022-10-17T12:35:38.948Z,99354.69
2022-10-17T12:36:42.079Z,99351.25
2022-10-17T12:38:01.430Z,99354.91
2022-10-17T12:39:03.126Z,99352.50
2022-10-17T12:40:48.964Z,99353.22
2022-10-17T12:41:53.509Z,99358.97
2022-10-17T12:42:55.275Z,99365.03
2022-10-17T12:43:57.253Z,99357.75
2022-10-17T12:44:59.276Z,99363.00
2022-10-17T12:46:03.644Z,99358.19
2022-10-17T12:47:05.279Z,99362.28
2022-10-17T12:48:10.524Z,99362.09
2022-10-17T12:49:54.355Z,99361.69
2022-10-17T12:51:40.493Z,99365.63
2022-10-17T12:52:42.319Z,99365.41
2022-10-17T12:53:47.180Z,99362.19
2022-10-17T12:55:12.248Z,99358.28
2022-10-17T12:56:19.509Z,99355.34
2022-10-17T12:57:24.774Z,99354.34
2022-10-17T12:58:26.924Z,99354.16
2022-10-17T12:59:30.038Z,99355.84
2022-10-17T13:00:59.519Z,99346.69
2022-10-17T13:02:20.143Z,99352.19
2022-10-17T13:03:41.649Z,99350.06
2022-10-17T13:04:43.457Z,99361.63
2022-10-17T13:05:52.631Z,99363.84
2022-10-17T13:07:00.598Z,99357.09
2022-10-17T13:08:08.055Z,99360.44
2022-10-17T13:09:27.091Z,99361.31
2022-10-17T13:10:34.795Z,99365.44
2022-10-17T13:11:39.590Z,99361.41
2022-10-17T13:12:41.542Z,99372.84
2022-10-17T13:13:49.115Z,99370.75
2022-10-17T13:14:54.599Z,99371.34
2022-10-17T13:15:56.401Z,99365.19
2022-10-17T13:17:01.923Z,99369.00
2022-10-17T13:18:04.642Z,99366.88
2022-10-17T13:19:23.132Z,99377.81
2022-10-17T13:20:31.473Z,99374.56
2022-10-17T13:21:33.677Z,99374.38
2022-10-17T13:22:35.498Z,99374.66
2022-10-17T13:23:37.968Z,99372.03
2022-10-17T13:24:41.084Z,99375.03
2022-10-17T13:25:42.868Z,99371.59
2022-10-17T13:26:46.251Z,99371.38
2022-10-17T13:27:50.532Z,99377.09
2022-10-17T13:29:13.333Z,99376.09
2022-10-17T13:30:32.098Z,99376.94
2022-10-17T13:31:38.513Z,99377.56
2022-10-17T13:32:41.323Z,99387.09
2022-10-17T13:33:43.063Z,99373.31
2022-10-17T13:34:44.800Z,99383.94
2022-10-17T13:35:59.829Z,99389.16